createdAt,value
2023-03-08T00:01:58.148Z,74.26
2023-03-08T00:04:26.359Z,74.19
2023-03-08T00:06:54.496Z,74.50
2023-03-08T00:09:23.785Z,74.71
2023-03-08T00:11:51.724Z,74.78
2023-03-08T00:14:21.021Z,74.51
2023-03-08T00:16:49.033Z,74.39
2023-03-08T00:19:17.179Z,74.44
2023-03-08T00:21:45.312Z,74.45
2023-03-08T00:24:16.821Z,74.47
2023-03-08T00:26:46.333Z,74.55
2023-03-08T00:29:14.345Z,74.44
2023-03-08T00:31:42.659Z,74.47
2023-03-08T00:34:10.620Z,74.83
2023-03-08T00:36:38.647Z,74.56
2023-03-08T00:39:06.830Z,74.46
2023-03-08T00:41:34.879Z,74.56
2023-03-08T00:44:04.657Z,74.79
2023-03-08T00:46:32.657Z,74.89
2023-03-08T00:49:00.684Z,74.95
2023-03-08T00:51:28.865Z,74.96
2023-03-08T00:53:56.883Z,74.74
2023-03-08T00:56:24.941Z,74.81
2023-03-08T00:58:52.941Z,75.14
2023-03-08T01:01:22.389Z,75.12
2023-03-08T01:03:50.422Z,75.33
2023-03-08T01:06:18.703Z,75.13
2023-03-08T01:08:46.707Z,75.30
2023-03-08T01:11:18.759Z,74.98
2023-03-08T01:13:46.938Z,74.88
2023-03-08T01:16:19.068Z,74.75
2023-03-08T01:18:48.565Z,74.71
2023-03-08T01:21:16.635Z,74.83
2023-03-08T01:23:44.772Z,75.13
2023-03-08T01:26:13.573Z,74.95
2023-03-08T01:28:41.592Z,75.07
2023-03-08T01:31:10.262Z,75.07
2023-03-08T01:33:38.450Z,74.94
2023-03-08T01:36:10.982Z,75.30
2023-03-08T01:38:39.377Z,75.24
2023-03-08T01:41:08.620Z,75.56
2023-03-08T01:43:37.553Z,75.09
2023-03-08T01:46:07.222Z,75.47
2023-03-08T01:48:36.960Z,75.32
2023-03-08T01:51:05.983Z,75.75
2023-03-08T01:53:38.027Z,75.53
2023-03-08T01:56:07.117Z,75.17
2023-03-08T01:58:35.259Z,75.18
2023-03-08T02:01:03.192Z,75.06
2023-03-08T02:03:31.223Z,75.04
2023-03-08T02:05:59.204Z,74.98
2023-03-08T02:08:27.193Z,75.17
2023-03-08T02:10:57.637Z,74.93
2023-03-08T02:13:26.398Z,75.19
2023-03-08T02:15:56.933Z,75.25
2023-03-08T02:18:25.022Z,74.79
2023-03-08T02:20:53.036Z,75.05
2023-03-08T02:23:23.011Z,75.03
2023-03-08T02:25:52.168Z,74.96
2023-03-08T02:28:20.759Z,74.95
2023-03-08T02:30:49.069Z,74.82
2023-03-08T02:33:17.040Z,75.07
2023-03-08T02:35:45.185Z,74.96
2023-03-08T02:38:14.075Z,75.08
2023-03-08T02:40:43.626Z,75.33
2023-03-08T02:43:11.889Z,75.37
2023-03-08T02:45:39.850Z,75.50
2023-03-08T02:48:07.980Z,75.29
2023-03-08T02:50:36.693Z,75.63
2023-03-08T02:53:04.824Z,74.94
2023-03-08T02:55:36.148Z,74.98
2023-03-08T02:58:05.849Z,75.45
2023-03-08T03:00:33.881Z,75.52
2023-03-08T03:03:01.778Z,75.65
2023-03-08T03:05:29.835Z,75.49
2023-03-08T03:07:58.780Z,75.49
2023-03-08T03:10:27.146Z,75.75
2023-03-08T03:12:55.266Z,75.62
2023-03-08T03:15:24.680Z,75.72
2023-03-08T03:17:52.666Z,75.80
2023-03-08T03:20:20.749Z,75.46
2023-03-08T03:22:48.893Z,75.89
2023-03-08T03:25:16.903Z,75.29
2023-03-08T03:27:44.806Z,75.70
2023-03-08T03:30:13.363Z,75.76
2023-03-08T03:32:42.721Z,75.51
2023-03-08T03:35:11.051Z,75.51
2023-03-08T03:37:38.948Z,76.24
2023-03-08T03:40:07.596Z,76.64
2023-03-08T03:42:35.576Z,76.85
2023-03-08T03:45:03.613Z,76.58
2023-03-08T03:47:31.812Z,76.52
2023-03-08T03:50:01.346Z,76.06
2023-03-08T03:52:29.219Z,75.54
2023-03-08T03:54:57.065Z,75.53
2023-03-08T03:57:25.265Z,75.49
2023-03-08T03:59:53.133Z,75.97
2023-03-08T04:02:21.151Z,75.93
2023-03-08T04:04:50.233Z,75.93
2023-03-08T04:07:19.510Z,75.80
2023-03-08T04:09:47.829Z,75.77
2023-03-08T04:12:15.772Z,75.68
2023-03-08T04:14:43.883Z,76.01
2023-03-08T04:17:11.721Z,75.98
2023-03-08T04:19:39.875Z,76.42
2023-03-08T04:22:07.970Z,76.07
2023-03-08T04:24:37.802Z,75.95
2023-03-08T04:27:05.844Z,76.14
2023-03-08T04:29:33.922Z,76.13
2023-03-08T04:32:01.766Z,76.23
2023-03-08T04:34:29.890Z,76.30
2023-03-08T04:36:57.835Z,76.03
2023-03-08T04:39:26.038Z,76.04
2023-03-08T04:41:55.706Z,75.92
2023-03-08T04:44:23.530Z,76.01
2023-03-08T04:46:51.687Z,75.83
2023-03-08T04:49:19.620Z,76.07
2023-03-08T04:51:47.573Z,75.90
2023-03-08T04:54:15.683Z,75.78
2023-03-08T04:56:43.741Z,76.14
2023-03-08T04:59:12.990Z,75.77
2023-03-08T05:01:42.780Z,76.05
2023-03-08T05:04:11.488Z,76.04
2023-03-08T05:06:39.767Z,75.78
2023-03-08T05:09:07.703Z,75.72
2023-03-08T05:11:35.638Z,75.69
2023-03-08T05:14:03.688Z,75.66
2023-03-08T05:16:33.076Z,75.33
2023-03-08T05:19:01.097Z,75.34
2023-03-08T05:21:29.061Z,75.61
2023-03-08T05:23:57.010Z,75.42
2023-03-08T05:26:24.900Z,75.51
2023-03-08T05:28:52.977Z,75.12
2023-03-08T05:31:21.837Z,75.28
2023-03-08T05:33:52.228Z,75.22
2023-03-08T05:36:20.240Z,75.09
2023-03-08T05:38:48.504Z,74.72
2023-03-08T05:41:17.685Z,74.90
2023-03-08T05:43:45.914Z,74.91
2023-03-08T05:46:15.293Z,74.62
2023-03-08T05:48:43.298Z,74.24
2023-03-08T05:51:13.875Z,74.45
2023-03-08T05:53:42.042Z,73.91
2023-03-08T05:56:11.133Z,73.97
2023-03-08T05:58:41.434Z,73.65
2023-03-08T06:01:13.943Z,73.46
2023-03-08T06:03:41.933Z,73.83
2023-03-08T06:06:09.943Z,73.61
2023-03-08T06:08:39.482Z,73.12
2023-03-08T06:11:07.699Z,72.91
2023-03-08T06:13:36.255Z,71.95
2023-03-08T06:16:05.274Z,71.73
2023-03-08T06:18:33.691Z,72.22
2023-03-08T06:21:02.862Z,72.06
2023-03-08T06:23:31.794Z,71.71
2023-03-08T06:26:01.811Z,72.02
2023-03-08T06:28:30.086Z,71.74
2023-03-08T06:30:58.122Z,71.49
2023-03-08T06:33:27.483Z,71.82
2023-03-08T06:35:59.310Z,70.45
2023-03-08T06:38:29.540Z,71.13
2023-03-08T06:40:57.892Z,71.03
2023-03-08T06:43:27.425Z,70.37
2023-03-08T06:45:55.698Z,69.84
2023-03-08T06:48:23.922Z,69.14
2023-03-08T06:50:52.630Z,68.41
2023-03-08T06:53:20.882Z,67.33
2023-03-08T06:55:48.976Z,68.27
2023-03-08T06:58:16.828Z,67.75
2023-03-08T07:00:46.383Z,67.13
2023-03-08T07:03:14.847Z,66.84
2023-03-08T07:05:43.304Z,66.88
2023-03-08T07:08:11.420Z,66.64
2023-03-08T07:10:39.396Z,66.31
2023-03-08T07:13:07.376Z,65.60
2023-03-08T07:15:37.837Z,66.04
2023-03-08T07:18:07.390Z,65.08
2023-03-08T07:20:35.401Z,65.41
2023-03-08T07:23:03.368Z,65.29
2023-03-08T07:25:31.389Z,65.40
2023-03-08T07:27:59.876Z,64.82
2023-03-08T07:30:28.317Z,64.21
2023-03-08T07:32:56.478Z,62.86
2023-03-08T07:35:25.967Z,64.13
2023-03-08T07:37:54.118Z,64.13
2023-03-08T07:40:22.185Z,64.29
2023-03-08T07:42:50.366Z,63.51
2023-03-08T07:45:18.899Z,64.11
2023-03-08T07:47:47.008Z,63.92
2023-03-08T07:50:14.867Z,63.74
2023-03-08T07:52:44.441Z,63.34
2023-03-08T07:55:12.972Z,63.40
2023-03-08T07:57:41.098Z,62.91
2023-03-08T08:00:09.628Z,62.56
2023-03-08T08:02:38.041Z,62.72
2023-03-08T08:05:06.439Z,62.27
2023-03-08T08:07:34.555Z,60.88
2023-03-08T08:10:04.178Z,62.66
2023-03-08T08:12:32.210Z,62.01
2023-03-08T08:15:00.200Z,62.21
2023-03-08T08:17:28.213Z,61.35
2023-03-08T08:19:56.343Z,61.19
2023-03-08T08:22:24.596Z,61.18
2023-03-08T08:24:52.616Z,60.25
2023-03-08T08:27:21.904Z,60.80
2023-03-08T08:29:51.024Z,60.62
2023-03-08T08:32:19.628Z,61.27
2023-03-08T08:34:47.731Z,61.15
2023-03-08T08:37:15.854Z,61.08
2023-03-08T08:39:43.830Z,61.08
2023-03-08T08:42:11.808Z,60.59
2023-03-08T08:44:41.182Z,60.12
2023-03-08T08:47:09.140Z,60.42
2023-03-08T08:49:37.172Z,60.30
2023-03-08T08:52:05.678Z,60.01
2023-03-08T08:54:34.386Z,59.69
2023-03-08T08:57:02.416Z,59.45
2023-03-08T08:59:30.409Z,58.62
2023-03-08T09:01:59.974Z,58.66
2023-03-08T09:04:28.131Z,59.73
2023-03-08T09:06:56.341Z,59.37
2023-03-08T09:09:24.392Z,59.09
2023-03-08T09:11:55.616Z,58.48
2023-03-08T09:14:24.143Z,58.70
2023-03-08T09:16:52.775Z,58.43
2023-03-08T09:19:22.445Z,58.90
2023-03-08T09:21:50.537Z,58.44
2023-03-08T09:24:18.601Z,58.57
2023-03-08T09:26:46.830Z,57.97
2023-03-08T09:29:14.834Z,58.01
2023-03-08T09:31:45.474Z,58.03
2023-03-08T09:34:15.035Z,58.03
2023-03-08T09:36:44.608Z,57.02
2023-03-08T09:39:14.555Z,57.32
2023-03-08T09:41:53.171Z,57.36
2023-03-08T09:44:44.115Z,57.23
2023-03-08T09:47:18.035Z,56.73
2023-03-08T09:49:48.407Z,55.75
2023-03-08T09:52:19.297Z,56.99
2023-03-08T09:54:48.270Z,56.87
2023-03-08T09:57:19.400Z,56.66
2023-03-08T09:59:50.805Z,55.98
2023-03-08T10:02:23.324Z,56.52
2023-03-08T10:05:11.824Z,56.14
2023-03-08T10:07:49.663Z,55.96
2023-03-08T10:10:30.018Z,55.76
2023-03-08T10:13:05.149Z,55.59
2023-03-08T10:15:35.254Z,56.12
2023-03-08T10:18:05.059Z,55.83
2023-03-08T10:20:35.697Z,56.06
2023-03-08T10:23:11.917Z,56.37
2023-03-08T10:25:40.141Z,56.45
2023-03-08T10:28:12.866Z,56.64
2023-03-08T10:30:42.934Z,56.18
2023-03-08T10:33:12.408Z,56.07
2023-03-08T10:35:51.409Z,56.35
2023-03-08T10:38:20.882Z,56.06
2023-03-08T10:40:48.954Z,55.80
2023-03-08T10:43:26.722Z,55.87
2023-03-08T10:46:05.424Z,55.35
2023-03-08T10:48:34.218Z,55.54
2023-03-08T10:51:03.407Z,55.85
2023-03-08T10:53:33.391Z,55.47
2023-03-08T10:56:02.728Z,54.37
2023-03-08T10:58:35.282Z,54.64
2023-03-08T11:01:04.592Z,54.86
2023-03-08T11:03:32.675Z,54.79
2023-03-08T11:06:01.552Z,54.49
2023-03-08T11:08:30.813Z,54.07
2023-03-08T11:11:05.053Z,54.71
2023-03-08T11:13:35.316Z,54.32
2023-03-08T11:16:10.080Z,54.51
2023-03-08T11:18:47.188Z,54.75
2023-03-08T11:21:21.267Z,54.31
2023-03-08T11:23:53.134Z,53.89
2023-03-08T11:26:24.949Z,54.04
2023-03-08T11:29:03.360Z,53.99
2023-03-08T11:31:35.287Z,53.36
2023-03-08T11:34:19.282Z,53.57
2023-03-08T11:36:49.827Z,52.86
2023-03-08T11:39:20.190Z,52.75
2023-03-08T11:41:57.212Z,52.86
2023-03-08T11:44:45.195Z,52.59
2023-03-08T11:47:28.390Z,53.10
2023-03-08T11:50:06.225Z,53.23
2023-03-08T11:52:39.156Z,53.46
2023-03-08T11:55:20.759Z,53.72
2023-03-08T11:57:54.531Z,53.39
2023-03-08T12:00:24.314Z,53.34
2023-03-08T12:02:52.415Z,53.43
2023-03-08T12:05:26.538Z,53.93
2023-03-08T12:07:57.484Z,54.09
2023-03-08T12:10:27.241Z,53.99
2023-03-08T12:13:00.295Z,54.41
2023-03-08T12:15:31.173Z,54.78
2023-03-08T12:18:04.206Z,55.50
2023-03-08T12:20:36.129Z,55.59
2023-03-08T12:23:09.778Z,56.10
2023-03-08T12:25:40.544Z,55.98
2023-03-08T12:28:13.718Z,56.09
2023-03-08T12:30:50.342Z,56.36
2023-03-08T12:33:19.327Z,57.09
2023-03-08T12:35:52.104Z,57.41
2023-03-08T12:38:31.059Z,57.91
2023-03-08T12:40:59.128Z,57.80
2023-03-08T12:43:32.747Z,58.33
2023-03-08T12:46:03.387Z,58.26
2023-03-08T12:48:32.147Z,58.63
2023-03-08T12:51:03.325Z,58.99
2023-03-08T12:53:33.841Z,59.98
2023-03-08T12:56:03.041Z,60.35
2023-03-08T12:58:33.686Z,61.03
2023-03-08T13:01:03.134Z,60.80
2023-03-08T13:03:37.594Z,60.94
2023-03-08T13:06:15.937Z,61.15
2023-03-08T13:08:46.566Z,60.77
2023-03-08T13:11:16.889Z,60.79
2023-03-08T13:13:50.632Z,61.29
2023-03-08T13:16:30.288Z,62.51
2023-03-08T13:19:03.217Z,62.63
2023-03-08T13:21:35.453Z,62.74
2023-03-08T13:24:08.450Z,63.04
2023-03-08T13:26:54.332Z,63.38
2023-03-08T13:29:23.788Z,63.31
2023-03-08T13:31:52.597Z,64.71
2023-03-08T13:34:28.717Z,65.18
2023-03-08T13:36:57.105Z,65.46
2023-03-08T13:39:26.068Z,64.82
2023-03-08T13:41:54.507Z,65.80
2023-03-08T13:44:25.424Z,65.46
2023-03-08T13:46:55.410Z,66.02
2023-03-08T13:49:25.337Z,66.14
2023-03-08T13:51:54.675Z,66.31
2023-03-08T13:54:29.507Z,65.48
2023-03-08T13:56:57.798Z,65.30
2023-03-08T13:59:27.821Z,65.12
2023-03-08T14:01:56.626Z,65.14
2023-03-08T14:04:25.951Z,65.36
2023-03-08T14:06:55.047Z,65.53
2023-03-08T14:09:23.266Z,66.32
2023-03-08T14:11:57.039Z,65.90
2023-03-08T14:14:27.860Z,66.73
2023-03-08T14:16:57.697Z,67.44
2023-03-08T14:19:26.632Z,67.64
2023-03-08T14:21:55.756Z,68.55
2023-03-08T14:24:25.728Z,69.06
2023-03-08T14:27:03.944Z,68.71
2023-03-08T14:29:33.064Z,68.82
2023-03-08T14:32:04.672Z,69.24
2023-03-08T14:34:36.296Z,69.48
2023-03-08T14:37:06.595Z,69.49
2023-03-08T14:39:35.846Z,70.48
2023-03-08T14:42:11.340Z,70.00
2023-03-08T14:44:39.584Z,71.73
2023-03-08T14:47:23.011Z,72.10
2023-03-08T14:49:58.032Z,71.86
2023-03-08T14:52:28.117Z,72.36
2023-03-08T14:54:56.091Z,73.34
2023-03-08T14:57:24.716Z,73.14
2023-03-08T14:59:52.928Z,74.27
2023-03-08T15:02:22.496Z,74.34
2023-03-08T15:04:50.491Z,75.12
2023-03-08T15:07:21.674Z,74.33
2023-03-08T15:09:50.543Z,74.07
2023-03-08T15:12:19.229Z,74.56
2023-03-08T15:14:47.266Z,74.75
2023-03-08T15:17:15.201Z,75.16
2023-03-08T15:19:44.802Z,75.26
2023-03-08T15:22:14.605Z,75.00
2023-03-08T15:24:42.748Z,75.08
2023-03-08T15:27:14.717Z,74.85
2023-03-08T15:29:42.756Z,75.17
2023-03-08T15:32:11.625Z,75.53
2023-03-08T15:34:40.968Z,76.04
2023-03-08T15:37:12.705Z,75.67
2023-03-08T15:39:40.973Z,75.78
2023-03-08T15:42:08.981Z,75.85
2023-03-08T15:44:37.026Z,76.00
2023-03-08T15:47:05.120Z,76.08
2023-03-08T15:49:33.218Z,75.67
2023-03-08T15:52:01.235Z,75.89
2023-03-08T15:54:31.909Z,75.86
2023-03-08T15:56:59.966Z,75.99
2023-03-08T15:59:28.011Z,76.50
2023-03-08T16:01:55.969Z,76.60
2023-03-08T16:04:24.014Z,76.86
2023-03-08T16:06:52.037Z,77.07
2023-03-08T16:09:19.982Z,77.05
2023-03-08T16:11:49.533Z,77.58
2023-03-08T16:14:18.801Z,77.54
2023-03-08T16:16:46.736Z,77.10
2023-03-08T16:19:14.740Z,77.41
2023-03-08T16:21:42.857Z,77.63
2023-03-08T16:24:12.032Z,77.84
2023-03-08T16:26:40.214Z,77.76
2023-03-08T16:29:09.612Z,77.90
2023-03-08T16:31:37.569Z,78.35
2023-03-08T16:34:05.914Z,77.83
2023-03-08T16:36:34.016Z,78.59
2023-03-08T16:39:01.973Z,78.57
2023-03-08T16:41:30.219Z,79.40
2023-03-08T16:43:58.506Z,79.06
2023-03-08T16:46:28.033Z,78.93
2023-03-08T16:48:56.495Z,78.85
2023-03-08T16:51:26.032Z,78.62
2023-03-08T16:53:54.329Z,78.40
2023-03-08T16:56:23.216Z,78.14
2023-03-08T16:58:51.333Z,78.72
2023-03-08T17:01:19.801Z,78.89
2023-03-08T17:03:49.543Z,78.69
2023-03-08T17:06:18.713Z,79.09
2023-03-08T17:08:47.149Z,78.95
2023-03-08T17:11:15.938Z,78.74
2023-03-08T17:13:44.264Z,78.99
2023-03-08T17:16:13.165Z,79.14
2023-03-08T17:18:41.228Z,79.63
2023-03-08T17:21:10.844Z,79.42
2023-03-08T17:23:38.748Z,79.45
2023-03-08T17:26:07.456Z,79.27
2023-03-08T17:28:35.601Z,78.91
2023-03-08T17:31:04.182Z,79.60
2023-03-08T17:33:32.163Z,78.95
2023-03-08T17:36:02.313Z,79.25
2023-03-08T17:38:32.135Z,78.96
2023-03-08T17:41:00.185Z,78.93
2023-03-08T17:43:28.137Z,79.00
2023-03-08T17:45:59.674Z,78.75
2023-03-08T17:48:27.592Z,78.84
2023-03-08T17:50:55.561Z,78.96
2023-03-08T17:53:23.609Z,78.81
2023-03-08T17:55:52.979Z,78.67
2023-03-08T17:58:21.056Z,78.67
2023-03-08T18:00:49.021Z,78.78
2023-03-08T18:03:17.081Z,78.98
2023-03-08T18:05:48.818Z,78.77
2023-03-08T18:08:16.741Z,78.63
2023-03-08T18:10:44.898Z,79.03
2023-03-08T18:13:14.256Z,79.40
2023-03-08T18:15:42.210Z,79.55
2023-03-08T18:18:10.212Z,79.00
2023-03-08T18:20:38.170Z,79.10
2023-03-08T18:23:07.285Z,79.44
2023-03-08T18:25:35.581Z,79.38
2023-03-08T18:28:03.515Z,79.24
2023-03-08T18:30:32.854Z,79.23
2023-03-08T18:33:00.816Z,79.53
2023-03-08T18:35:35.008Z,79.67
2023-03-08T18:38:03.422Z,79.74
2023-03-08T18:40:31.755Z,79.83
2023-03-08T18:43:00.939Z,79.76
2023-03-08T18:45:28.934Z,79.66
2023-03-08T18:47:58.241Z,79.72
2023-03-08T18:50:26.269Z,79.48
2023-03-08T18:52:54.276Z,79.96
2023-03-08T18:55:22.308Z,79.94
2023-03-08T18:57:50.360Z,79.93
2023-03-08T19:00:19.120Z,79.91
2023-03-08T19:02:47.113Z,80.23
2023-03-08T19:05:17.716Z,79.73
2023-03-08T19:07:46.801Z,79.69
2023-03-08T19:10:15.396Z,80.09
2023-03-08T19:12:43.936Z,79.47
2023-03-08T19:15:12.700Z,79.53
2023-03-08T19:17:40.999Z,79.53
2023-03-08T19:20:09.993Z,79.27
2023-03-08T19:22:39.895Z,79.05
2023-03-08T19:25:08.367Z,79.24
2023-03-08T19:27:36.412Z,79.17
2023-03-08T19:30:04.548Z,78.97
2023-03-08T19:32:32.500Z,78.76
2023-03-08T19:35:01.925Z,78.77
2023-03-08T19:37:30.509Z,78.33
2023-03-08T19:40:01.299Z,77.92
2023-03-08T19:42:30.740Z,77.53
2023-03-08T19:44:58.839Z,76.87
2023-03-08T19:47:27.002Z,76.53
2023-03-08T19:49:55.069Z,76.18
2023-03-08T19:52:23.180Z,76.43
2023-03-08T19:54:51.151Z,76.02
2023-03-08T19:57:20.564Z,75.22
2023-03-08T19:59:48.564Z,74.20
2023-03-08T20:02:16.449Z,73.38
2023-03-08T20:04:44.504Z,73.71
2023-03-08T20:07:12.460Z,73.04
2023-03-08T20:09:42.454Z,72.36
2023-03-08T20:12:10.724Z,71.73
2023-03-08T20:14:40.304Z,72.01
2023-03-08T20:17:08.327Z,71.68
2023-03-08T20:19:36.847Z,71.98
2023-03-08T20:22:05.510Z,71.54
2023-03-08T20:24:33.493Z,70.88
2023-03-08T20:27:01.458Z,71.88
2023-03-08T20:29:29.504Z,71.70
2023-03-08T20:31:59.480Z,71.29
2023-03-08T20:34:27.895Z,70.54
2023-03-08T20:36:55.971Z,70.47
2023-03-08T20:39:24.118Z,70.08
2023-03-08T20:41:52.068Z,70.28
2023-03-08T20:44:20.118Z,69.78
2023-03-08T20:46:47.954Z,69.93
2023-03-08T20:49:17.276Z,69.62
2023-03-08T20:51:45.259Z,69.27
2023-03-08T20:54:13.752Z,68.81
2023-03-08T20:56:41.798Z,69.61
2023-03-08T20:59:10.149Z,69.17
2023-03-08T21:01:38.896Z,68.01
2023-03-08T21:04:07.190Z,68.75
2023-03-08T21:06:36.621Z,68.62
2023-03-08T21:09:04.931Z,68.65
2023-03-08T21:11:32.964Z,68.22
2023-03-08T21:14:01.020Z,68.92
2023-03-08T21:16:29.872Z,69.14
2023-03-08T21:18:59.229Z,68.75
2023-03-08T21:21:29.172Z,68.98
2023-03-08T21:23:59.694Z,69.04
2023-03-08T21:26:28.330Z,69.34
2023-03-08T21:28:56.777Z,69.49
2023-03-08T21:31:25.124Z,70.01
2023-03-08T21:33:53.628Z,69.95
2023-03-08T21:36:21.836Z,69.85
2023-03-08T21:38:52.353Z,69.74
2023-03-08T21:41:22.354Z,70.32
2023-03-08T21:43:50.284Z,70.66
2023-03-08T21:46:18.866Z,70.57
2023-03-08T21:48:47.149Z,70.20
2023-03-08T21:51:15.564Z,70.22
2023-03-08T21:53:44.281Z,70.31
2023-03-08T21:56:15.837Z,70.61
2023-03-08T21:58:45.876Z,70.92
2023-03-08T22:01:21.329Z,71.49
2023-03-08T22:03:49.439Z,71.65
2023-03-08T22:06:17.545Z,71.88
2023-03-08T22:08:45.847Z,72.17
2023-03-08T22:11:14.387Z,72.72
2023-03-08T22:13:42.353Z,72.46
2023-03-08T22:16:12.021Z,72.41
2023-03-08T22:18:40.112Z,72.42
2023-03-08T22:21:08.084Z,72.53
2023-03-08T22:23:36.033Z,72.77
2023-03-08T22:26:07.134Z,73.09
2023-03-08T22:28:35.145Z,73.15
2023-03-08T22:31:03.062Z,73.75
2023-03-08T22:33:32.843Z,73.27
2023-03-08T22:36:00.880Z,73.52
2023-03-08T22:38:28.783Z,73.67
2023-03-08T22:40:56.710Z,73.47
2023-03-08T22:43:24.939Z,73.53
2023-03-08T22:45:53.166Z,73.89
2023-03-08T22:48:21.138Z,74.15
2023-03-08T22:50:58.734Z,74.46
2023-03-08T22:53:36.584Z,74.16
2023-03-08T22:56:04.568Z,73.98
2023-03-08T22:58:32.448Z,74.19
2023-03-08T23:01:00.514Z,73.77
2023-03-08T23:03:28.403Z,73.84
2023-03-08T23:05:57.748Z,73.92
2023-03-08T23:08:25.720Z,73.89
2023-03-08T23:10:53.616Z,73.81
2023-03-08T23:13:33.011Z,74.32
2023-03-08T23:16:02.204Z,73.83
2023-03-08T23:18:30.508Z,74.52
2023-03-08T23:21:03.524Z,74.41
2023-03-08T23:23:31.697Z,74.51
2023-03-08T23:25:59.803Z,74.42
2023-03-08T23:28:27.774Z,74.82
2023-03-08T23:30:55.742Z,74.44
2023-03-08T23:33:23.723Z,74.61
2023-03-08T23:35:51.720Z,74.46
2023-03-08T23:38:21.016Z,74.73
2023-03-08T23:40:48.966Z,74.81
2023-03-08T23:43:16.983Z,74.41
2023-03-08T23:45:44.874Z,74.82
2023-03-08T23:48:12.831Z,74.94
2023-03-08T23:50:40.770Z,74.67
2023-03-08T23:53:08.750Z,74.84
2023-03-08T23:55:39.554Z,74.53
2023-03-08T23:58:07.557Z,74.62
